Time;durP1;ratioP1;P1;durP2;ratioP2;P2;SDS_P1;SDS_P2;PMS_P1;PMS_P2;Temp;Humidity;BMP_temperature;BMP_pressure;BME280_temperature;BME280_humidity;BME280_pressure;Samples;Min_cycle;Max_cycle;Signal;HPM_P1;HPM_P2
2022/03/12 00:01:47;;;;;;;7.67;3.43;;;;;;;;;;5008071;28;20030;-68
2022/03/12 00:04:13;;;;;;;7.43;3.67;;;;;;;;;;5008104;28;20291;-68
2022/03/12 00:06:39;;;;;;;21.35;5.10;;;;;;;;;;5007772;28;20148;-68
2022/03/12 00:09:05;;;;;;;13.07;5.55;;;;;;;;;;5006968;28;20101;-68
2022/03/12 00:11:34;;;;;;;10.50;4.28;;;;;;;;;;5008501;28;20484;-68
2022/03/12 00:14:00;;;;;;;14.88;4.43;;;;;;;;;;5001701;28;20026;-68
2022/03/12 00:16:27;;;;;;;10.40;5.05;;;;;;;;;;5000057;28;20025;-68
2022/03/12 00:18:55;;;;;;;12.88;4.90;;;;;;;;;;5003140;28;20022;-68
2022/03/12 00:21:23;;;;;;;14.98;6.80;;;;;;;;;;5008721;28;20451;-69
2022/03/12 00:23:50;;;;;;;11.50;5.00;;;;;;;;;;5008317;28;20018;-68
2022/03/12 00:26:16;;;;;;;25.83;7.85;;;;;;;;;;5003320;28;20045;-68
2022/03/12 00:28:42;;;;;;;17.25;6.68;;;;;;;;;;5040594;23;20516;-70
2022/03/12 00:31:07;;;;;;;11.05;5.18;;;;;;;;;;5028303;28;20029;-71
2022/03/12 00:33:33;;;;;;;16.15;3.60;;;;;;;;;;5025658;28;20037;-70
2022/03/12 00:35:58;;;;;;;10.27;4.60;;;;;;;;;;5014661;28;20496;-70
2022/03/12 00:38:24;;;;;;;13.75;6.38;;;;;;;;;;5027520;28;20056;-70
2022/03/12 00:40:50;;;;;;;9.88;5.50;;;;;;;;;;5027124;28;20029;-69
2022/03/12 00:43:15;;;;;;;10.98;4.97;;;;;;;;;;5011034;28;20029;-69
2022/03/12 00:45:41;;;;;;;15.07;5.43;;;;;;;;;;5027961;28;20028;-70
2022/03/12 00:48:07;;;;;;;10.10;5.72;;;;;;;;;;5024518;28;20019;-70
2022/03/12 00:50:32;;;;;;;9.57;5.03;;;;;;;;;;5028301;28;20037;-70
2022/03/12 00:52:57;;;;;;;19.80;7.43;;;;;;;;;;5012281;28;20018;-70
2022/03/12 00:55:23;;;;;;;11.68;4.22;;;;;;;;;;5027010;28;20026;-70
2022/03/12 00:57:48;;;;;;;9.38;4.00;;;;;;;;;;5026696;28;20040;-69
2022/03/12 01:00:15;;;;;;;15.15;6.20;;;;;;;;;;5026629;28;20013;-70
2022/03/12 01:02:40;;;;;;;10.75;3.60;;;;;;;;;;5025736;28;20440;-70
2022/03/12 01:05:05;;;;;;;9.80;5.10;;;;;;;;;;5027334;28;20029;-70
2022/03/12 01:07:30;;;;;;;12.45;2.75;;;;;;;;;;5030128;28;20303;-70
2022/03/12 01:09:56;;;;;;;10.10;4.80;;;;;;;;;;5031800;28;20025;-69
2022/03/12 01:12:22;;;;;;;11.48;6.13;;;;;;;;;;5030357;28;20045;-72
2022/03/12 01:14:47;;;;;;;5.35;2.15;;;;;;;;;;5025052;28;20041;-70
2022/03/12 01:17:12;;;;;;;10.88;4.10;;;;;;;;;;5023568;28;20017;-71
2022/03/12 01:19:38;;;;;;;6.63;3.77;;;;;;;;;;5028250;28;20072;-69
2022/03/12 01:22:04;;;;;;;11.90;6.95;;;;;;;;;;5030772;28;20260;-68
2022/03/12 01:24:30;;;;;;;9.48;4.38;;;;;;;;;;5031209;28;20025;-68
2022/03/12 01:26:55;;;;;;;18.20;6.03;;;;;;;;;;5030766;28;20438;-68
2022/03/12 01:29:21;;;;;;;8.80;3.70;;;;;;;;;;5030738;28;20037;-70
2022/03/12 01:31:46;;;;;;;15.25;3.80;;;;;;;;;;5028901;28;20443;-70
2022/03/12 01:34:11;;;;;;;9.75;3.92;;;;;;;;;;5030746;28;20068;-69
2022/03/12 01:36:36;;;;;;;13.23;3.72;;;;;;;;;;5031249;28;20028;-69
2022/03/12 01:39:02;;;;;;;13.07;3.22;;;;;;;;;;5028235;28;20490;-69
2022/03/12 01:41:32;;;;;;;11.25;6.00;;;;;;;;;;5029344;28;20028;-69
2022/03/12 01:43:59;;;;;;;10.55;4.63;;;;;;;;;;5028774;28;20382;-68
2022/03/12 01:46:32;;;;;;;9.95;4.68;;;;;;;;;;5030794;28;20437;-70
2022/03/12 01:48:59;;;;;;;10.55;4.55;;;;;;;;;;5028099;28;20024;-68
2022/03/12 01:51:25;;;;;;;9.82;3.97;;;;;;;;;;5030845;28;20090;-69
2022/03/12 01:53:51;;;;;;;12.88;4.07;;;;;;;;;;5029063;28;20049;-69
2022/03/12 01:56:16;;;;;;;24.20;5.90;;;;;;;;;;5028841;28;20228;-69
2022/03/12 01:58:45;;;;;;;17.05;3.88;;;;;;;;;;5029453;28;20272;-69
2022/03/12 02:01:11;;;;;;;11.98;5.90;;;;;;;;;;5025645;28;20021;-69
2022/03/12 02:03:36;;;;;;;13.52;5.82;;;;;;;;;;5029055;28;20079;-69
2022/03/12 02:06:01;;;;;;;10.65;6.35;;;;;;;;;;5024003;28;20029;-70
2022/03/12 02:08:27;;;;;;;17.52;4.28;;;;;;;;;;5022695;28;20434;-71
2022/03/12 02:10:58;;;;;;;6.95;3.28;;;;;;;;;;5026234;28;20029;-69
2022/03/12 02:13:24;;;;;;;11.13;6.28;;;;;;;;;;5023515;28;20178;-71
2022/03/12 02:15:51;;;;;;;9.50;3.45;;;;;;;;;;5025898;28;20391;-69
2022/03/12 02:18:16;;;;;;;16.05;5.63;;;;;;;;;;5024737;28;20104;-69
2022/03/12 02:20:43;;;;;;;9.30;5.00;;;;;;;;;;5030072;28;20120;-70
2022/03/12 02:23:08;;;;;;;15.88;4.93;;;;;;;;;;5022693;28;20291;-69
2022/03/12 02:25:34;;;;;;;16.88;3.90;;;;;;;;;;5022539;28;20059;-68
2022/03/12 02:28:01;;;;;;;17.70;5.85;;;;;;;;;;5027375;28;20024;-68
2022/03/12 02:30:37;;;;;;;8.27;4.25;;;;;;;;;;5023710;28;20025;-70
2022/03/12 02:33:03;;;;;;;11.55;5.53;;;;;;;;;;5020985;28;20100;-68
2022/03/12 02:35:34;;;;;;;5.53;3.50;;;;;;;;;;5021813;28;20163;-68
2022/03/12 02:38:00;;;;;;;15.55;6.30;;;;;;;;;;5021908;28;20513;-71
2022/03/12 02:40:25;;;;;;;8.25;4.35;;;;;;;;;;5027129;28;20155;-68
2022/03/12 02:42:53;;;;;;;11.93;5.38;;;;;;;;;;5026283;28;20032;-70
2022/03/12 02:45:18;;;;;;;8.90;5.35;;;;;;;;;;5029013;28;20447;-68
2022/03/12 02:47:43;;;;;;;11.85;6.97;;;;;;;;;;5029464;28;20025;-68
2022/03/12 02:50:09;;;;;;;11.15;5.32;;;;;;;;;;5029341;28;20017;-69
2022/03/12 02:52:41;;;;;;;9.80;5.05;;;;;;;;;;5017741;28;20044;-70
2022/03/12 02:55:08;;;;;;;11.80;5.03;;;;;;;;;;5027581;28;20067;-68
2022/03/12 02:57:33;;;;;;;11.05;5.53;;;;;;;;;;5014534;28;20535;-69
2022/03/12 03:00:04;;;;;;;8.30;4.53;;;;;;;;;;5029291;28;20033;-68
2022/03/12 03:02:38;;;;;;;11.32;6.40;;;;;;;;;;5026877;28;20017;-68
2022/03/12 03:05:03;;;;;;;10.38;6.05;;;;;;;;;;5028640;28;20048;-68
2022/03/12 03:07:29;;;;;;;11.75;5.47;;;;;;;;;;5026436;28;20285;-68
2022/03/12 03:09:54;;;;;;;6.90;3.22;;;;;;;;;;5028496;28;20100;-69
2022/03/12 03:12:23;;;;;;;10.33;5.83;;;;;;;;;;5014241;28;20029;-68
2022/03/12 03:14:49;;;;;;;18.33;7.27;;;;;;;;;;5025464;28;20272;-69
2022/03/12 03:17:15;;;;;;;10.85;4.38;;;;;;;;;;5028758;28;20272;-70
2022/03/12 03:19:41;;;;;;;15.35;5.95;;;;;;;;;;5028245;28;20032;-68
2022/03/12 03:22:06;;;;;;;8.70;4.28;;;;;;;;;;5026072;28;21846;-69
2022/03/12 03:24:32;;;;;;;14.95;6.05;;;;;;;;;;5027068;28;20025;-68
2022/03/12 03:26:58;;;;;;;8.32;4.20;;;;;;;;;;5028664;28;20037;-68
2022/03/12 03:29:25;;;;;;;12.48;5.32;;;;;;;;;;5028340;28;20025;-68
2022/03/12 03:31:50;;;;;;;10.48;5.13;;;;;;;;;;5028915;28;20474;-68
2022/03/12 03:34:16;;;;;;;11.15;5.35;;;;;;;;;;5028628;28;20079;-68
2022/03/12 03:36:41;;;;;;;14.32;5.70;;;;;;;;;;5027167;28;20026;-69
2022/03/12 03:39:07;;;;;;;9.57;5.28;;;;;;;;;;5028689;28;20041;-68
2022/03/12 03:41:35;;;;;;;10.45;5.43;;;;;;;;;;5030140;28;20064;-69
2022/03/12 03:44:00;;;;;;;8.82;4.95;;;;;;;;;;5025059;28;20398;-69
2022/03/12 03:46:26;;;;;;;14.27;4.93;;;;;;;;;;5029993;28;20021;-69
2022/03/12 03:48:52;;;;;;;14.43;5.45;;;;;;;;;;5025316;28;20032;-69
2022/03/12 03:51:18;;;;;;;15.95;6.05;;;;;;;;;;5027104;28;20029;-70
2022/03/12 03:53:43;;;;;;;6.00;3.03;;;;;;;;;;5027706;28;20026;-69
2022/03/12 03:56:08;;;;;;;10.77;4.75;;;;;;;;;;5026819;28;20049;-69
2022/03/12 03:58:35;;;;;;;11.38;4.35;;;;;;;;;;5025833;28;20025;-69
2022/03/12 04:01:06;;;;;;;12.60;5.47;;;;;;;;;;5028881;28;20043;-69
2022/03/12 04:03:34;;;;;;;15.27;6.78;;;;;;;;;;5028136;28;20622;-68
2022/03/12 04:06:01;;;;;;;17.52;4.43;;;;;;;;;;5013253;28;20025;-69
2022/03/12 04:08:27;;;;;;;15.45;6.78;;;;;;;;;;5028228;28;20028;-69
2022/03/12 04:10:52;;;;;;;11.32;4.97;;;;;;;;;;5029152;28;20025;-70
2022/03/12 04:13:18;;;;;;;10.48;5.25;;;;;;;;;;5024162;28;20026;-69
2022/03/12 04:15:44;;;;;;;16.70;5.65;;;;;;;;;;5021362;28;20040;-69
2022/03/12 04:18:09;;;;;;;12.00;4.55;;;;;;;;;;5022127;28;20469;-69
2022/03/12 04:20:34;;;;;;;13.45;5.25;;;;;;;;;;5027332;28;20422;-69
2022/03/12 04:23:00;;;;;;;6.50;4.10;;;;;;;;;;5010335;28;20044;-69
2022/03/12 04:25:25;;;;;;;14.05;6.18;;;;;;;;;;5020644;28;20031;-69
2022/03/12 04:27:51;;;;;;;12.50;5.90;;;;;;;;;;5027223;28;20505;-69
2022/03/12 04:30:19;;;;;;;18.90;6.30;;;;;;;;;;5024766;28;20056;-69
2022/03/12 04:32:45;;;;;;;12.48;4.13;;;;;;;;;;5024027;28;20022;-69
2022/03/12 04:35:10;;;;;;;16.98;8.15;;;;;;;;;;5021588;28;20025;-70
2022/03/12 04:37:36;;;;;;;9.15;4.88;;;;;;;;;;5022867;28;21885;-68
2022/03/12 04:40:10;;;;;;;10.63;4.60;;;;;;;;;;5005735;28;20099;-70
2022/03/12 04:42:35;;;;;;;9.93;4.40;;;;;;;;;;5029992;28;20103;-69
2022/03/12 04:45:01;;;;;;;17.75;5.85;;;;;;;;;;5030663;28;20052;-70
2022/03/12 04:47:26;;;;;;;9.77;4.28;;;;;;;;;;5029364;28;20026;-69
2022/03/12 04:49:51;;;;;;;10.27;4.60;;;;;;;;;;5031207;28;20091;-70
2022/03/12 04:52:18;;;;;;;12.57;5.72;;;;;;;;;;5032284;28;20773;-69
2022/03/12 04:54:43;;;;;;;9.27;4.22;;;;;;;;;;5029642;28;20478;-70
2022/03/12 04:57:08;;;;;;;19.13;7.13;;;;;;;;;;5031317;28;20057;-69
2022/03/12 04:59:33;;;;;;;12.97;6.60;;;;;;;;;;5031385;28;20287;-69
2022/03/12 05:01:59;;;;;;;11.63;5.07;;;;;;;;;;5031232;28;20260;-69
2022/03/12 05:04:24;;;;;;;10.55;4.15;;;;;;;;;;5032433;28;20041;-69
2022/03/12 05:06:49;;;;;;;12.73;6.57;;;;;;;;;;5031827;28;20021;-69
2022/03/12 05:09:14;;;;;;;6.17;3.87;;;;;;;;;;5031935;28;20319;-69
2022/03/12 05:11:40;;;;;;;15.70;6.28;;;;;;;;;;5030144;28;20286;-69
2022/03/12 05:14:06;;;;;;;12.13;4.95;;;;;;;;;;5030339;28;20104;-69
2022/03/12 05:16:34;;;;;;;12.52;5.45;;;;;;;;;;5023201;28;20021;-69
2022/03/12 05:19:06;;;;;;;18.90;6.75;;;;;;;;;;5024656;28;20117;-70
2022/03/12 05:21:31;;;;;;;16.00;4.63;;;;;;;;;;5013833;28;20025;-72
2022/03/12 05:23:56;;;;;;;20.80;5.30;;;;;;;;;;5029595;28;20022;-70
2022/03/12 05:26:23;;;;;;;12.17;5.50;;;;;;;;;;5029521;28;20429;-69
2022/03/12 05:28:48;;;;;;;9.95;4.75;;;;;;;;;;5029028;28;20924;-69
2022/03/12 05:31:13;;;;;;;11.57;5.63;;;;;;;;;;5030168;28;20021;-69
2022/03/12 05:33:38;;;;;;;10.90;6.63;;;;;;;;;;5030529;28;20028;-70
2022/03/12 05:36:04;;;;;;;13.02;5.35;;;;;;;;;;5029320;28;20071;-69
2022/03/12 05:38:31;;;;;;;10.55;4.70;;;;;;;;;;5031909;28;20021;-71
2022/03/12 05:40:57;;;;;;;11.93;3.78;;;;;;;;;;5031108;28;20386;-69
2022/03/12 05:43:22;;;;;;;6.75;4.00;;;;;;;;;;5030897;28;20025;-69
2022/03/12 05:45:48;;;;;;;15.13;7.77;;;;;;;;;;5010753;28;20521;-69
2022/03/12 05:48:14;;;;;;;5.97;3.40;;;;;;;;;;5028632;28;20304;-69
2022/03/12 05:50:40;;;;;;;14.90;6.28;;;;;;;;;;5030893;28;20017;-69
2022/03/12 05:53:09;;;;;;;18.05;6.45;;;;;;;;;;5029270;28;20359;-71
2022/03/12 05:55:37;;;;;;;16.00;4.15;;;;;;;;;;5019583;28;20031;-69
2022/03/12 05:58:02;;;;;;;14.23;4.78;;;;;;;;;;5028062;28;20013;-69
2022/03/12 06:00:27;;;;;;;15.70;7.38;;;;;;;;;;5023721;28;20066;-70
2022/03/12 06:02:53;;;;;;;14.35;6.32;;;;;;;;;;5031004;28;20053;-69
2022/03/12 06:05:20;;;;;;;12.93;6.35;;;;;;;;;;5028365;28;20030;-70
2022/03/12 06:07:46;;;;;;;8.25;3.58;;;;;;;;;;5027289;28;20036;-70
2022/03/12 06:10:15;;;;;;;18.45;7.05;;;;;;;;;;5025436;28;20021;-70
2022/03/12 06:12:42;;;;;;;13.80;6.03;;;;;;;;;;5028603;28;20036;-69
2022/03/12 06:15:08;;;;;;;9.80;4.18;;;;;;;;;;5023617;28;20025;-69
2022/03/12 06:17:33;;;;;;;16.42;4.75;;;;;;;;;;5021633;28;20095;-69
2022/03/12 06:19:58;;;;;;;14.10;6.35;;;;;;;;;;5026202;28;20013;-70
2022/03/12 06:22:23;;;;;;;13.20;5.63;;;;;;;;;;5028823;28;20477;-69
2022/03/12 06:24:49;;;;;;;13.73;4.97;;;;;;;;;;5028018;28;20276;-71
2022/03/12 06:27:17;;;;;;;13.32;6.00;;;;;;;;;;5028614;28;21095;-69
2022/03/12 06:29:42;;;;;;;12.25;4.07;;;;;;;;;;5027757;28;20111;-69
2022/03/12 06:32:08;;;;;;;12.75;6.25;;;;;;;;;;5029803;28;20049;-69
2022/03/12 06:34:35;;;;;;;15.45;5.55;;;;;;;;;;5028620;28;20030;-69
2022/03/12 06:37:00;;;;;;;10.32;5.53;;;;;;;;;;5028527;28;20021;-69
2022/03/12 06:39:25;;;;;;;9.55;4.57;;;;;;;;;;5025410;28;20116;-69
2022/03/12 06:41:50;;;;;;;18.45;7.32;;;;;;;;;;5027715;28;20021;-69
2022/03/12 06:44:17;;;;;;;11.85;5.13;;;;;;;;;;5027855;28;20366;-69
2022/03/12 06:46:43;;;;;;;14.48;7.63;;;;;;;;;;5025611;28;20124;-71
2022/03/12 06:49:08;;;;;;;10.70;4.97;;;;;;;;;;5029305;28;20730;-69
2022/03/12 06:51:33;;;;;;;15.32;5.63;;;;;;;;;;5028392;28;20021;-69
2022/03/12 06:53:59;;;;;;;11.10;4.68;;;;;;;;;;5023854;28;20032;-69
2022/03/12 06:56:24;;;;;;;13.80;3.97;;;;;;;;;;5022182;28;20021;-69
2022/03/12 06:58:49;;;;;;;8.77;4.72;;;;;;;;;;5028764;28;20116;-69
2022/03/12 07:01:15;;;;;;;8.32;4.28;;;;;;;;;;5029312;28;20033;-70
2022/03/12 07:03:40;;;;;;;13.80;4.93;;;;;;;;;;5029181;28;20053;-69
2022/03/12 07:06:06;;;;;;;8.90;3.92;;;;;;;;;;5029139;28;20049;-68
2022/03/12 07:08:31;;;;;;;11.25;5.05;;;;;;;;;;5015571;28;20090;-69
2022/03/12 07:10:57;;;;;;;11.32;4.97;;;;;;;;;;5026612;28;20060;-69
2022/03/12 07:13:22;;;;;;;15.80;4.10;;;;;;;;;;5028598;28;20029;-69
2022/03/12 07:15:47;;;;;;;20.20;7.03;;;;;;;;;;5028065;28;20824;-70
2022/03/12 07:18:12;;;;;;;6.72;3.40;;;;;;;;;;5026857;28;20033;-70
2022/03/12 07:20:38;;;;;;;10.98;4.75;;;;;;;;;;5025945;28;20498;-70
2022/03/12 07:23:05;;;;;;;12.45;5.82;;;;;;;;;;5008102;28;20481;-70
2022/03/12 07:25:30;;;;;;;11.10;5.35;;;;;;;;;;5023180;28;20026;-70
2022/03/12 07:27:55;;;;;;;11.35;6.25;;;;;;;;;;5023653;28;20374;-71
2022/03/12 07:30:21;;;;;;;6.80;3.85;;;;;;;;;;5028766;28;20030;-72
2022/03/12 07:32:46;;;;;;;13.02;6.72;;;;;;;;;;5031074;28;20047;-70
2022/03/12 07:35:13;;;;;;;8.73;4.82;;;;;;;;;;5035433;28;20092;-71
2022/03/12 07:37:39;;;;;;;16.58;5.35;;;;;;;;;;5013211;28;20083;-71
2022/03/12 07:40:05;;;;;;;8.40;4.13;;;;;;;;;;5024716;28;20402;-70
2022/03/12 07:42:30;;;;;;;9.23;4.90;;;;;;;;;;5025769;28;20020;-70
2022/03/12 07:44:55;;;;;;;11.00;6.53;;;;;;;;;;5029961;28;20378;-71
2022/03/12 07:47:20;;;;;;;12.73;6.43;;;;;;;;;;5015014;28;20053;-70
2022/03/12 07:49:46;;;;;;;12.60;6.38;;;;;;;;;;5026353;28;20268;-71
2022/03/12 07:52:11;;;;;;;12.23;5.72;;;;;;;;;;5022202;28;20022;-71
2022/03/12 07:54:36;;;;;;;12.20;4.07;;;;;;;;;;5015171;28;20030;-71
2022/03/12 07:57:02;;;;;;;13.32;5.07;;;;;;;;;;5021206;28;20026;-70
2022/03/12 07:59:29;;;;;;;8.15;3.75;;;;;;;;;;5027543;28;20018;-70
2022/03/12 08:01:55;;;;;;;7.15;3.97;;;;;;;;;;5030603;28;20041;-70
2022/03/12 08:04:20;;;;;;;17.00;5.05;;;;;;;;;;5013288;28;20029;-70
2022/03/12 08:06:45;;;;;;;9.47;4.70;;;;;;;;;;5030895;28;20388;-70
2022/03/12 08:09:10;;;;;;;10.23;5.75;;;;;;;;;;5031074;28;20331;-71
2022/03/12 08:11:35;;;;;;;11.85;6.50;;;;;;;;;;5026144;28;20047;-71
2022/03/12 08:14:06;;;;;;;9.68;4.28;;;;;;;;;;5028826;28;20025;-71
2022/03/12 08:16:33;;;;;;;12.13;6.43;;;;;;;;;;5031952;28;20017;-72
2022/03/12 08:18:59;;;;;;;12.90;6.35;;;;;;;;;;5033170;28;20014;-72
2022/03/12 08:21:24;;;;;;;12.27;5.47;;;;;;;;;;5033323;28;20021;-72
2022/03/12 08:23:50;;;;;;;14.60;5.55;;;;;;;;;;5036714;28;20031;-72
2022/03/12 08:26:16;;;;;;;12.48;4.55;;;;;;;;;;5032277;28;20060;-72
2022/03/12 08:28:41;;;;;;;8.98;4.60;;;;;;;;;;5043816;28;20116;-72
2022/03/12 08:31:07;;;;;;;13.85;5.90;;;;;;;;;;5032708;28;20108;-73
2022/03/12 08:33:32;;;;;;;6.32;4.03;;;;;;;;;;5047896;28;20127;-73
2022/03/12 08:35:58;;;;;;;19.48;3.80;;;;;;;;;;5052588;28;20009;-73
2022/03/12 08:38:24;;;;;;;10.88;4.88;;;;;;;;;;5038127;28;20087;-73
2022/03/12 08:40:51;;;;;;;10.35;4.35;;;;;;;;;;5014551;28;20017;-71
2022/03/12 08:43:16;;;;;;;9.30;4.32;;;;;;;;;;5031605;28;20057;-72
2022/03/12 08:45:42;;;;;;;10.57;4.65;;;;;;;;;;5017002;28;20057;-73
2022/03/12 08:48:07;;;;;;;10.57;6.03;;;;;;;;;;5029972;28;20029;-72
2022/03/12 08:50:32;;;;;;;10.25;5.50;;;;;;;;;;5030720;28;20026;-73
2022/03/12 08:52:58;;;;;;;10.03;4.63;;;;;;;;;;5029907;28;20037;-72
2022/03/12 08:55:24;;;;;;;6.20;3.15;;;;;;;;;;5030573;28;20264;-73
2022/03/12 08:57:49;;;;;;;7.95;4.00;;;;;;;;;;5028995;28;20022;-73
2022/03/12 09:00:15;;;;;;;7.05;4.43;;;;;;;;;;5018132;28;20083;-73
2022/03/12 09:02:41;;;;;;;13.43;5.63;;;;;;;;;;5031873;28;20024;-73
2022/03/12 09:05:07;;;;;;;14.05;5.82;;;;;;;;;;5032340;28;20027;-72
2022/03/12 09:07:32;;;;;;;7.35;5.35;;;;;;;;;;5030884;28;20017;-71
2022/03/12 09:09:58;;;;;;;10.15;6.45;;;;;;;;;;5032401;28;20024;-72
2022/03/12 09:12:23;;;;;;;9.68;5.82;;;;;;;;;;5033154;28;20068;-73
2022/03/12 09:14:49;;;;;;;8.52;4.90;;;;;;;;;;5031973;28;20027;-71
2022/03/12 09:17:14;;;;;;;11.18;4.10;;;;;;;;;;5032838;28;20018;-71
2022/03/12 09:19:39;;;;;;;9.52;5.32;;;;;;;;;;5030321;28;20013;-72
2022/03/12 09:22:05;;;;;;;8.27;3.73;;;;;;;;;;5021525;28;20025;-72
2022/03/12 09:24:30;;;;;;;9.98;3.88;;;;;;;;;;5026445;28;20263;-72
2022/03/12 09:26:55;;;;;;;6.18;3.53;;;;;;;;;;5015227;28;20109;-73
2022/03/12 09:29:22;;;;;;;10.57;4.57;;;;;;;;;;5030230;28;20021;-72
2022/03/12 09:31:48;;;;;;;13.20;6.18;;;;;;;;;;5029595;28;20570;-73
2022/03/12 09:34:13;;;;;;;16.25;6.40;;;;;;;;;;5028543;28;20025;-72
2022/03/12 09:36:39;;;;;;;11.82;5.32;;;;;;;;;;5013623;28;20013;-72
2022/03/12 09:39:06;;;;;;;12.75;6.38;;;;;;;;;;5011031;28;20405;-71
2022/03/12 09:41:34;;;;;;;20.00;6.32;;;;;;;;;;5030260;28;20620;-72
2022/03/12 09:44:00;;;;;;;10.57;6.30;;;;;;;;;;5033148;28;20025;-72
2022/03/12 09:46:25;;;;;;;16.70;6.90;;;;;;;;;;5026327;28;20390;-73
2022/03/12 09:48:50;;;;;;;11.93;6.07;;;;;;;;;;5021499;28;20021;-72
2022/03/12 09:51:16;;;;;;;23.20;7.18;;;;;;;;;;5032343;28;20032;-72
2022/03/12 09:53:41;;;;;;;13.43;7.03;;;;;;;;;;5042228;28;20527;-72
2022/03/12 09:56:07;;;;;;;12.25;6.45;;;;;;;;;;5036022;28;20022;-73
2022/03/12 09:58:32;;;;;;;7.82;4.65;;;;;;;;;;5031763;28;20036;-72
2022/03/12 10:00:57;;;;;;;9.02;3.30;;;;;;;;;;5030908;28;20101;-73
2022/03/12 10:03:23;;;;;;;11.55;4.53;;;;;;;;;;5037002;28;20041;-73
2022/03/12 10:05:48;;;;;;;7.50;3.45;;;;;;;;;;5031791;28;20079;-74
2022/03/12 10:08:13;;;;;;;11.98;5.25;;;;;;;;;;5018089;28;20707;-74
2022/03/12 10:10:38;;;;;;;11.25;5.13;;;;;;;;;;5036575;28;20473;-72
2022/03/12 10:13:04;;;;;;;7.33;3.73;;;;;;;;;;5047839;28;20029;-72
2022/03/12 10:15:29;;;;;;;8.60;4.50;;;;;;;;;;5047198;28;20609;-72
2022/03/12 10:17:54;;;;;;;6.82;3.92;;;;;;;;;;5047437;28;20028;-73
2022/03/12 10:20:20;;;;;;;7.20;2.33;;;;;;;;;;5051076;28;20039;-72
2022/03/12 10:22:46;;;;;;;6.60;4.40;;;;;;;;;;5035759;28;20497;-72
2022/03/12 10:25:12;;;;;;;8.73;4.10;;;;;;;;;;5013858;28;20272;-71
2022/03/12 10:27:37;;;;;;;7.00;4.22;;;;;;;;;;5013152;28;20112;-72
2022/03/12 10:30:03;;;;;;;7.82;3.20;;;;;;;;;;5024510;28;20056;-73
2022/03/12 10:32:30;;;;;;;10.35;4.85;;;;;;;;;;5031308;28;20084;-72
2022/03/12 10:34:56;;;;;;;8.57;4.25;;;;;;;;;;5032030;28;20045;-72
2022/03/12 10:37:28;;;;;;;8.07;4.20;;;;;;;;;;5031349;28;20584;-72
2022/03/12 10:40:09;;;;;;;11.20;4.53;;;;;;;;;;5031000;28;20018;-72
2022/03/12 10:42:34;;;;;;;;;;;;;;;;;;5031588;28;20057;-72
2022/03/12 10:45:09;;;;;;;6.63;2.95;;;;;;;;;;5031380;28;19943;-73
2022/03/12 10:47:39;;;;;;;3.95;2.25;;;;;;;;;;5030879;28;20045;-72
2022/03/12 10:50:05;;;;;;;11.45;3.55;;;;;;;;;;5030822;28;20021;-71
2022/03/12 10:52:32;;;;;;;3.13;1.98;;;;;;;;;;5022930;28;20056;-71
2022/03/12 10:54:58;;;;;;;3.42;1.48;;;;;;;;;;5030660;28;20041;-73
2022/03/12 10:57:23;;;;;;;4.07;2.40;;;;;;;;;;5013095;28;20053;-72
2022/03/12 10:59:52;;;;;;;6.43;3.65;;;;;;;;;;5030355;28;20025;-72
2022/03/12 11:02:17;;;;;;;8.20;3.95;;;;;;;;;;5028180;28;20034;-73
2022/03/12 11:04:42;;;;;;;3.97;1.90;;;;;;;;;;5030573;28;20040;-72
2022/03/12 11:07:21;;;;;;;2.50;1.42;;;;;;;;;;5013152;28;20268;-72
2022/03/12 11:09:47;;;;;;;5.90;2.85;;;;;;;;;;5016620;28;20025;-72
2022/03/12 11:12:30;;;;;;;8.50;2.25;;;;;;;;;;5031262;28;20024;-72
2022/03/12 11:15:05;;;;;;;8.32;2.78;;;;;;;;;;5030810;28;20025;-73
2022/03/12 11:17:41;;;;;;;5.65;2.75;;;;;;;;;;5030828;28;20500;-72
2022/03/12 11:20:07;;;;;;;4.45;2.90;;;;;;;;;;5030457;28;20027;-72
2022/03/12 11:22:32;;;;;;;6.35;2.20;;;;;;;;;;5012480;28;20382;-72
2022/03/12 11:24:57;;;;;;;11.90;3.70;;;;;;;;;;5030718;28;20072;-72
2022/03/12 11:27:31;;;;;;;6.07;3.78;;;;;;;;;;5014101;28;20034;-72
2022/03/12 11:29:58;;;;;;;5.25;3.13;;;;;;;;;;5030382;28;20091;-72
2022/03/12 11:32:23;;;;;;;8.52;4.75;;;;;;;;;;5030499;28;20501;-72
2022/03/12 11:34:49;;;;;;;6.97;2.90;;;;;;;;;;5010978;28;20029;-72
2022/03/12 11:37:15;;;;;;;4.60;2.50;;;;;;;;;;5030286;28;20100;-73
2022/03/12 11:39:50;;;;;;;7.22;4.30;;;;;;;;;;5029375;28;20902;-73
2022/03/12 11:42:15;;;;;;;6.20;3.20;;;;;;;;;;5030468;28;20033;-72
2022/03/12 11:44:44;;;;;;;14.32;4.03;;;;;;;;;;5030500;28;20157;-72
2022/03/12 11:47:09;;;;;;;7.85;3.63;;;;;;;;;;5028245;28;20053;-72
2022/03/12 11:49:35;;;;;;;7.60;4.18;;;;;;;;;;5028361;28;20052;-72
2022/03/12 11:52:01;;;;;;;6.60;3.53;;;;;;;;;;5030203;28;20025;-72
2022/03/12 11:54:26;;;;;;;9.32;3.97;;;;;;;;;;5030334;28;20021;-72
2022/03/12 11:56:52;;;;;;;6.63;3.03;;;;;;;;;;5030453;28;20017;-72
2022/03/12 11:59:17;;;;;;;5.13;3.22;;;;;;;;;;5030250;28;20032;-73
2022/03/12 12:01:43;;;;;;;7.03;4.05;;;;;;;;;;5030553;28;20025;-72
2022/03/12 12:04:08;;;;;;;4.60;2.40;;;;;;;;;;5030499;28;20486;-72
2022/03/12 12:06:34;;;;;;;6.57;4.03;;;;;;;;;;5030261;28;20033;-72
2022/03/12 12:09:01;;;;;;;9.50;3.45;;;;;;;;;;5030038;28;20028;-72
2022/03/12 12:11:27;;;;;;;7.63;3.80;;;;;;;;;;5030543;28;20027;-72
2022/03/12 12:13:53;;;;;;;5.90;2.35;;;;;;;;;;5030081;28;20101;-73
2022/03/12 12:16:22;;;;;;;9.40;4.32;;;;;;;;;;5029823;28;20017;-72
2022/03/12 12:18:47;;;;;;;7.22;4.18;;;;;;;;;;5030124;28;20056;-72
2022/03/12 12:21:17;;;;;;;10.83;4.23;;;;;;;;;;5030221;28;20026;-72
2022/03/12 12:23:42;;;;;;;13.60;4.07;;;;;;;;;;5030207;28;20260;-72
2022/03/12 12:26:08;;;;;;;5.17;2.37;;;;;;;;;;5030285;28;20022;-72
2022/03/12 12:28:44;;;;;;;18.58;3.60;;;;;;;;;;5040707;23;20313;-67
2022/03/12 12:31:13;;;;;;;7.47;3.28;;;;;;;;;;5010433;28;20026;-64
2022/03/12 12:33:42;;;;;;;6.28;3.30;;;;;;;;;;5010346;28;20032;-66
2022/03/12 12:36:10;;;;;;;11.75;2.95;;;;;;;;;;5010396;28;20053;-66
2022/03/12 12:38:35;;;;;;;8.25;2.38;;;;;;;;;;5010639;28;20056;-66
2022/03/12 12:41:03;;;;;;;4.78;2.47;;;;;;;;;;5011177;28;20053;-66
2022/03/12 12:43:39;;;;;;;8.80;1.95;;;;;;;;;;4992993;28;20021;-66
2022/03/12 12:46:06;;;;;;;7.65;2.50;;;;;;;;;;5011844;28;20061;-66
2022/03/12 12:48:33;;;;;;;6.63;3.65;;;;;;;;;;5011935;28;20025;-66
2022/03/12 12:51:15;;;;;;;9.10;3.92;;;;;;;;;;5012585;28;20381;-66
2022/03/12 12:53:51;;;;;;;3.25;1.98;;;;;;;;;;5009799;28;20466;-66
2022/03/12 12:56:19;;;;;;;3.47;1.77;;;;;;;;;;5007664;28;20026;-66
2022/03/12 12:59:05;;;;;;;8.88;3.25;;;;;;;;;;5006493;28;20064;-67
2022/03/12 13:01:37;;;;;;;4.03;2.55;;;;;;;;;;4990998;28;20438;-66
2022/03/12 13:04:03;;;;;;;2.58;1.42;;;;;;;;;;4994197;28;20461;-66
2022/03/12 13:06:35;;;;;;;5.45;2.83;;;;;;;;;;4996054;28;20033;-66
2022/03/12 13:09:04;;;;;;;7.28;3.28;;;;;;;;;;5013428;28;20057;-66
2022/03/12 13:11:30;;;;;;;4.28;2.53;;;;;;;;;;5014121;28;20194;-66
2022/03/12 13:13:56;;;;;;;2.13;1.40;;;;;;;;;;5013222;28;20079;-67
2022/03/12 13:16:22;;;;;;;3.42;2.17;;;;;;;;;;5013045;28;20014;-66
2022/03/12 13:18:47;;;;;;;4.65;2.60;;;;;;;;;;5013193;28;20052;-66
2022/03/12 13:21:26;;;;;;;3.55;1.90;;;;;;;;;;5013884;28;20013;-66
2022/03/12 13:23:51;;;;;;;4.97;2.80;;;;;;;;;;5013562;28;20030;-66
2022/03/12 13:26:17;;;;;;;4.95;2.33;;;;;;;;;;5014271;28;20030;-66
2022/03/12 13:28:48;;;;;;;5.95;3.20;;;;;;;;;;5013125;28;20022;-66
2022/03/12 13:31:16;;;;;;;6.25;2.70;;;;;;;;;;5013564;28;20014;-65
2022/03/12 13:33:42;;;;;;;3.72;1.83;;;;;;;;;;5013175;28;20025;-65
2022/03/12 13:36:18;;;;;;;6.20;1.95;;;;;;;;;;5012774;28;20010;-65
2022/03/12 13:38:44;;;;;;;7.97;2.65;;;;;;;;;;5012724;28;20022;-66
2022/03/12 13:41:13;;;;;;;7.85;1.40;;;;;;;;;;5013374;28;20109;-66
2022/03/12 13:43:38;;;;;;;3.67;1.25;;;;;;;;;;5012163;28;20022;-65
2022/03/12 13:46:04;;;;;;;6.18;2.55;;;;;;;;;;5012914;28;20037;-65
2022/03/12 13:48:30;;;;;;;5.43;3.22;;;;;;;;;;5013030;28;20033;-65
2022/03/12 13:50:56;;;;;;;4.47;2.00;;;;;;;;;;5012212;28;20449;-66
2022/03/12 13:53:27;;;;;;;4.25;2.08;;;;;;;;;;5012430;28;20036;-66
2022/03/12 13:56:00;;;;;;;3.70;2.03;;;;;;;;;;4993540;28;20022;-66
2022/03/12 13:58:29;;;;;;;7.00;3.75;;;;;;;;;;5002514;28;20432;-66
2022/03/12 14:00:56;;;;;;;4.88;2.47;;;;;;;;;;5011683;28;20014;-66
2022/03/12 14:03:22;;;;;;;3.83;1.88;;;;;;;;;;5010554;28;20072;-65
2022/03/12 14:05:48;;;;;;;8.50;4.30;;;;;;;;;;5011633;28;20398;-65
2022/03/12 14:08:24;;;;;;;8.57;3.60;;;;;;;;;;4993310;28;20026;-65
2022/03/12 14:10:50;;;;;;;4.97;2.33;;;;;;;;;;5010897;28;20521;-65
2022/03/12 14:13:16;;;;;;;8.05;3.95;;;;;;;;;;4996569;28;20073;-66
2022/03/12 14:15:41;;;;;;;8.73;4.45;;;;;;;;;;5012263;28;20056;-66
2022/03/12 14:18:07;;;;;;;7.97;4.93;;;;;;;;;;5011971;28;20026;-66
2022/03/12 14:20:43;;;;;;;12.35;2.13;;;;;;;;;;5018785;28;20044;-65
2022/03/12 14:23:08;;;;;;;6.72;3.15;;;;;;;;;;5023098;28;20110;-66
2022/03/12 14:25:34;;;;;;;6.10;2.97;;;;;;;;;;5011727;28;20092;-65
2022/03/12 14:27:59;;;;;;;9.07;4.93;;;;;;;;;;5011051;28;20052;-66
2022/03/12 14:30:25;;;;;;;6.75;3.67;;;;;;;;;;5010730;28;20038;-65
2022/03/12 14:32:51;;;;;;;5.07;2.63;;;;;;;;;;5011624;28;20022;-64